انتخاب استان
  • All
  • آذربايجان شرقی
  • آذربايجان غربی
  • اردبيل
  • اصفهان
  • البرز
  • ايلام
  • بوشهر
  • تهران
  • چارمحال بختیاری
  • خراسان جنوبی
  • خراسان رضوی
  • خراسان شمالی
  • خوزستان
  • زنجان
  • سمنان
  • سيستان و بلوجستان
  • فارس
  • قزوین
  • قم
  • کردستان
  • کرمان
  • کرمانشاه
  • کهگيلويه بويراحمد
  • گلستان
  • گيلان
  • لرستان
  • مازندران
  • متفرقه
  • مرکزی
  • نیروی هوایی
  • هرمزگان
  • همدان
  • يزد
ساعت گذشتهنمایش خطاهای
مجموع خطاهای دریافتی 4
pp1pp
لیست خطاهای دریافتی طی 3 ساعت گذشته از 2020-02-24 05:28:00.0 تا 2020-02-24 08:28:00.0
نام استان
کد ایستگاه
تاریخ پیام
متن پیام
خطای اتفاق افتاده
pp1pp
تهران
KEKJ
2020-02-24 08:00:00.0
SAIR37 OIII 240800
METAR ALKH 240800Z 26002KT 9999 SCT035 BKN200 14/M01 Q1022=
METAR AZUB 240800Z 01004KT 3000 BR SCT015TCU 08/07 Q1019=
METAR ESEG 240800Z AUTO VRB02KT //// // ////// 13/01 Q1024=
METAR ESET 240800Z 07004KT 9999 FEW035 SCT200 16/00 Q1022=
METAR GHGA 240800Z 20012KT CAVOK 10/01 Q1020=
METAR GHGB 240800Z 07002KT 9999 SCT040 BKN100 12/04 Q1021=
METAR GHGE 240800Z NIL=
METAR GHGK 240800Z 13008KT 9999 FEW035 BKN180 11/03 Q1022=
METAR GHGM 240800Z 27004KT 9999 SCT035 BKN100 12/01 Q1020=
METAR GHGS 240800Z AUTO VRB01KT //// // ////// 12/03 Q1002=
METAR GHGT 240800Z 15002KT CAVOK 16/04 Q1019=
METAR HAHA 240800Z AUTO 14004KT //// // ////// 15/03 Q1020=
METAR HAHF 240800Z AUTO VRB02KT //// // ////// 12/03 Q1021=
METAR HAHG 240800Z AUTO 06003KT //// // ////// 11/03 Q1021=
METAR HAHM 240800Z NIL=
METAR HAHN 240800Z 14010KT 9999 FEW030CB BKN040 15/03 Q1020=
METAR HAHR 240800Z 19004KT 9999 FEW035 BKN190 10/01 Q1023=
METAR HAHO 240800Z AUTO 25014KT //// // ////// 09/02 Q1025=
METAR ILIE 240800Z 15006KT 9999 SCT040 BKN090 16/06 Q1020=
METAR KEKC 240751Z 20014KT 9999 FEW040 OVC100 14/00 Q1022=
METAR KEKG 240800Z 06004KT CAVOK 18/07 Q1018=
METAR KEKJ 240800Z 00000KT 9999FEW040 OVC090 11/05 Q1021=
METAR KEKU 240800Z AUTO VRB02KT //// // ////// 22/07 Q1017=
METAR KEKV 240800Z 12014KT 9999 FEW045 SCT090 OVC170 15/03 Q1020=
METAR KEKY 240800Z AUTO 18011KT //// // ////// 16/01 Q1018=
METAR KHBA 240800Z 19004KT CAVOK 18/M03 Q1022=
METAR COR KHBH 240800Z 35006KT 9999 FEW035 SCT190 22/M04 Q1019=
METAR KHBN 240800Z NIL=
METAR KHBY 240800Z AUTO 27010KT //// // ////// 19/M08 Q1023=
METAR KHMB 240750Z 18004KT 9999 FEW035 19/00 Q1018=
METAR KHMY 240800Z AUTO 00000KT //// // ////// 24/M03 Q1020=
METAR KHMU 240800Z AUTO 26010KT //// // ////// 14/M03 Q1023=
METAR KORH 240800Z AUTO VRB01KT //// // ////// 11/M00 Q1022=
METAR KORK 240800Z 16006KT 9999 FEW035 OVC090 14/02 Q1019=
METAR MAAG 240800Z 06006KT CAVOK 10/M00 Q1025=
METAR MAAI 240800Z 22004KT 9999 FEW040 BKN190 12/02 Q1027=
METAR MAAO 240800Z 00000KT 8000 FEW040 BKN170 13/02 Q1021=
METAR MAAT 240800Z 22008KT 9999 FEW040 SCT090 13/02 Q1021=
METAR MASD 240800Z 21010KT CAVOK 12/M08 Q1022=
METAR MASL 240800Z 13006KT CAVOK 15/M02 Q1021=
METAR MASO 240800Z 00000KT CAVOK 14/M01 Q1023=
METAR MASP 240800Z 35006KT CAVOK 12/07 Q1013=
METAR OIIV 240800Z AUTO VRB02KT //// // ////// 16/02 Q1019=
METAR SESH 240800Z 03004KT CAVOK 11/M01 Q1023=
METAR SESI 240800Z 21004KT CAVOK 18/00 Q1019=
METAR SESR 240800Z 15008KT CAVOK 14/M02 Q1020=
METAR TETD 240800Z AUTO 25006KT //// // ////// 10/M02 Q1024=
METAR TETL 240800Z AUTO 23014KT //// // ////// 02/M06 Q1024=
METAR TETO 240750Z AUTO 21004KT //// // ////// 16/M02 Q1021=
METAR TETS 240755Z 23002KT CAVOK 17/03 Q1019=
METAR TETV 240750Z 00000KT 7000 NSC 17/05 Q1025=
METAR ZAZG 240755Z 00000KT 9999 FEW035 BKN090 10/01 Q1020=
METAR ESEC 240800Z 26004KT 9999 FEW040 SCT200 12/M01 Q1025=
METAR KHBZ 240800Z AUTO 23012KT //// // ////// 15/00 Q1020=
اشکال در ساختار پیام یا گروه
خراسان رضوی
40778
2020-02-24 06:00:00.0
SMIR40 OIMM 240600
AAXX 24061
40740 11520 60605 10066 20064 38750 40215 51007 60001 71042 86700
333 31/// 70000 86720 555 10065 29099=
40741 12960 01506 10167 20098 39866 40194 50000 60001 333 30006
70000 555 10130 29064=
40743 12970 10904 10137 20006 39087 40188 51014 60001 80001 333
30005 5//// 70000 81070 555 10078 29041=
40744 12662 13003 10090 20068 38893 40222 50009 60003 81100 333
31102 70000 555 10079 29086=
40745 11957 00103 10125 20059 39064 40198 50008 60001 70500 333
30100 5//// 70000 555 10092 29064=
40746 12965 02902 10130 20016 38831 40195 52012 60001
333 30000 70000 555 10078 29046=
40762 12665 40000 10122 20004 38588 40195 51013 60001 84400
333 30000 70000 84640 555 10069 29044=
40763 12665 62202 10136 20004 38959 40213 51018 60001 86500 333
30006 70000 86635 555 10077 29040=
40778 12970 00102 10160 21002 38979 40161 51010 60001
80002 333 30005 70000 82070 555 10087 29033=
40806 12965 03302 10148 20043 39119 40197 51007 60001 333 30002
79999 555 10097 29049=
40807 12670 50000 10166 20069 39577 40178 50006 60003 82506 333
30002 70000 82635 85270 555 10117 29053=
40825 12668 22209 10143 21014 38565 40190 50004 60003 80102
333 30101 70000 82070 555 10074 29034=
40837 12965 00000 10147 20019 39082 40208 52017 60003 333 30005
70000 555 10088 29042=
88122 NIL=
99289 12965 00000 10167 20034 39139 40149 50004 60003 333 31003
79999 555 10103 29041=
99315 NIL=
99324 12665 13402 10132 21003 38715 40197 51012 60003 81100 333
31004 70000 81835 555 10072 29039=
99356 12665 41102 10143 20012 39058 40169 52017 60003 84400 333
30006 70000 84640 555 10084 29041=
99434 12662 40000 10160 20075 39270 40298 52010 69913 81501 333
30005 70001 81635 84070 555 10116 29057=
99436 12665 12504 10166 21030 38779 40207 52015 60003 81400 333
30005 70000 81635 555 10082 29026=
خراسان رضوی
40778
2020-02-24 06:00:00.0
SMIR40 OIMM 240600
AAXX 24061
40740 11520 60605 10066 20064 38750 40215 51007 60001 71042 86700
333 31/// 70000 86720 555 10065 29099=
40741 12960 01506 10167 20098 39866 40194 50000 60001 333 30006
70000 555 10130 29064=
40743 NIL=
40744 NIL=
40745 11957 00103 10125 20059 39064 40198 50008 60001 70500 333
30100 5//// 70000 555 10092 29064=
40746 12965 02902 10130 20016 38831 40195 52012 60001
333 30000 70000 555 10078 29046=
40762 12665 40000 10122 20004 38588 40195 51013 60001 84400
333 30000 70000 84640 555 10069 29044=
40763 12665 62202 10136 20004 38959 40213 51018 60001 86500 333
30006 70000 86635 555 10077 29040=
40778 12970 00102 10160 21002 38979 40161 51010 60001
80002 333 30005 70000 82070 555 10087 29033=
40806 12965 03302 10148 20043 39119 40197 51007 60001 333 30002
79999 555 10097 29049=
40807 12670 50000 10166 20069 39577 40178 50006 60003 82506 333
30002 70000 82635 85270 555 10117 29053=
40825 12668 22209 10143 21014 38565 40190 50004 60003 80102
333 30101 70000 82070 555 10074 29034=
40837 12965 00000 10147 20019 39082 40208 52017 60003 333 30005
70000 555 10088 29042=
88122 NIL=
99289 12965 00000 10167 20034 39139 40149 50004 60003 333 31003
79999 555 10103 29041=
99315 NIL=
99324 12665 13402 10132 21003 38715 40197 51012 60003 81100 333
31004 70000 81835 555 10072 29039=
99356 12665 41102 10143 20012 39058 40169 52017 60003 84400 333
30006 70000 84640 555 10084 29041=
99434 12662 40000 10160 20075 39270 40298 52010 69913 81501 333
30005 70001 81635 84070 555 10116 29057=
99436 12665 12504 10166 21030 38779 40207 52015 60003 81400 333
30005 70000 81635 555 10082 29026=
خراسان رضوی
40778
2020-02-24 06:00:00.0
SMIR40 OIMM 240600
AAXX 24061
40740 11520 60605 10066 20064 38750 40215 51007 60001 71042 86700
333 31/// 70000 86720 555 10065 29099=
40741 12960 01506 10167 20098 39866 40194 50000 60001 333 30006
70000 555 10130 29064=
40743 NIL=
40744 12662 13003 10090 20068 38893 40222 50009 60003 81100 333
31102 70000 555 10079 29086=
40745 11957 00103 10125 20059 39064 40198 50008 60001 70500 333
30100 5//// 70000 555 10092 29064=
40746 12965 02902 10130 20016 38831 40195 52012 60001
333 30000 70000 555 10078 29046=
40762 12665 40000 10122 20004 38588 40195 51013 60001 84400
333 30000 70000 84640 555 10069 29044=
40763 12665 62202 10136 20004 38959 40213 51018 60001 86500 333
30006 70000 86635 555 10077 29040=
40778 12970 00102 10160 21002 38979 40161 51010 60001
80002 333 30005 70000 82070 555 10087 29033=
40806 12965 03302 10148 20043 39119 40197 51007 60001 333 30002
79999 555 10097 29049=
40807 12670 50000 10166 20069 39577 40178 50006 60003 82506 333
30002 70000 82635 85270 555 10117 29053=
40825 12668 22209 10143 21014 38565 40190 50004 60003 80102
333 30101 70000 82070 555 10074 29034=
40837 12965 00000 10147 20019 39082 40208 52017 60003 333 30005
70000 555 10088 29042=
88122 NIL=
99289 12965 00000 10167 20034 39139 40149 50004 60003 333 31003
79999 555 10103 29041=
99315 NIL=
99324 12665 13402 10132 21003 38715 40197 51012 60003 81100 333
31004 70000 81835 555 10072 29039=
99356 12665 41102 10143 20012 39058 40169 52017 60003 84400 333
30006 70000 84640 555 10084 29041=
99434 12662 40000 10160 20075 39270 40298 52010 69913 81501 333
30005 70001 81635 84070 555 10116 29057=
99436 12665 12504 10166 21030 38779 40207 52015 60003 81400 333
30005 70000 81635 555 10082 29026=